sensor_id;sensor_type;location;lat;lon;timestamp;pressure;altitude;pressure_sealevel;temperature;humidity
51530;BME280;37613;51.788;21.582;2023-04-06T00:03:58;100627.70;;;-1.94;62.63
51530;BME280;37613;51.788;21.582;2023-04-06T00:08:00;100623.71;;;-1.92;62.70
51530;BME280;37613;51.788;21.582;2023-04-06T00:12:03;100620.98;;;-1.91;62.81
51530;BME280;37613;51.788;21.582;2023-04-06T00:16:08;100617.30;;;-1.90;62.98
51530;BME280;37613;51.788;21.582;2023-04-06T00:20:15;100610.86;;;-1.90;63.04
51530;BME280;37613;51.788;21.582;2023-04-06T00:24:27;100608.38;;;-1.89;62.94
51530;BME280;37613;51.788;21.582;2023-04-06T00:28:29;100605.48;;;-1.84;63.14
51530;BME280;37613;51.788;21.582;2023-04-06T00:32:31;100601.41;;;-1.79;63.35
51530;BME280;37613;51.788;21.582;2023-04-06T00:36:42;100596.54;;;-1.75;63.36
51530;BME280;37613;51.788;21.582;2023-04-06T00:40:47;100592.15;;;-1.70;63.48
51530;BME280;37613;51.788;21.582;2023-04-06T00:44:56;100586.77;;;-1.66;63.86
51530;BME280;37613;51.788;21.582;2023-04-06T00:49:01;100580.23;;;-1.62;63.81
51530;BME280;37613;51.788;21.582;2023-04-06T00:53:11;100579.88;;;-1.59;64.00
51530;BME280;37613;51.788;21.582;2023-04-06T00:57:18;100583.55;;;-1.56;64.11
51530;BME280;37613;51.788;21.582;2023-04-06T01:01:20;100570.84;;;-1.56;64.20
51530;BME280;37613;51.788;21.582;2023-04-06T01:05:22;100567.27;;;-1.51;64.82
51530;BME280;37613;51.788;21.582;2023-04-06T01:09:27;100556.86;;;-1.52;64.70
51530;BME280;37613;51.788;21.582;2023-04-06T01:13:36;100562.90;;;-1.43;64.77
51530;BME280;37613;51.788;21.582;2023-04-06T01:17:42;100570.79;;;-1.32;65.17
51530;BME280;37613;51.788;21.582;2023-04-06T01:21:44;100569.73;;;-1.28;65.24
51530;BME280;37613;51.788;21.582;2023-04-06T01:25:54;100568.02;;;-1.25;65.29
51530;BME280;37613;51.788;21.582;2023-04-06T01:29:56;100560.39;;;-1.23;65.69
51530;BME280;37613;51.788;21.582;2023-04-06T01:34:04;100558.58;;;-1.22;65.63
51530;BME280;37613;51.788;21.582;2023-04-06T01:38:15;100557.17;;;-1.21;65.82
51530;BME280;37613;51.788;21.582;2023-04-06T01:42:17;100556.95;;;-1.19;65.83
51530;BME280;37613;51.788;21.582;2023-04-06T01:46:21;100551.02;;;-1.18;65.67
51530;BME280;37613;51.788;21.582;2023-04-06T01:50:29;100550.71;;;-1.17;65.55
51530;BME280;37613;51.788;21.582;2023-04-06T01:54:32;100543.64;;;-1.16;65.71
51530;BME280;37613;51.788;21.582;2023-04-06T01:58:45;100538.30;;;-1.15;65.80
51530;BME280;37613;51.788;21.582;2023-04-06T02:02:54;100530.99;;;-1.14;65.95
51530;BME280;37613;51.788;21.582;2023-04-06T02:07:18;100525.82;;;-1.13;66.36
51530;BME280;37613;51.788;21.582;2023-04-06T02:11:23;100522.91;;;-1.11;66.22
51530;BME280;37613;51.788;21.582;2023-04-06T02:15:30;100518.31;;;-1.08;66.18
51530;BME280;37613;51.788;21.582;2023-04-06T02:19:55;100520.91;;;-1.06;66.57
51530;BME280;37613;51.788;21.582;2023-04-06T02:23:57;100517.98;;;-1.04;67.13
51530;BME280;37613;51.788;21.582;2023-04-06T02:28:02;100514.56;;;-1.03;66.77
51530;BME280;37613;51.788;21.582;2023-04-06T02:32:05;100511.38;;;-1.01;66.60
51530;BME280;37613;51.788;21.582;2023-04-06T02:36:07;100511.17;;;-0.90;67.54
51530;BME280;37613;51.788;21.582;2023-04-06T02:40:20;100510.50;;;-0.83;67.08
51530;BME280;37613;51.788;21.582;2023-04-06T02:44:23;100512.89;;;-0.86;66.80
51530;BME280;37613;51.788;21.582;2023-04-06T02:48:25;100513.95;;;-0.87;67.10
51530;BME280;37613;51.788;21.582;2023-04-06T02:52:27;100512.38;;;-0.89;67.29
51530;BME280;37613;51.788;21.582;2023-04-06T02:56:29;100508.99;;;-0.91;67.27
51530;BME280;37613;51.788;21.582;2023-04-06T03:00:31;100504.59;;;-0.93;67.80
51530;BME280;37613;51.788;21.582;2023-04-06T03:04:33;100507.17;;;-0.94;67.53
51530;BME280;37613;51.788;21.582;2023-04-06T03:08:40;100508.58;;;-0.94;67.47
51530;BME280;37613;51.788;21.582;2023-04-06T03:12:43;100503.84;;;-0.93;67.68
51530;BME280;37613;51.788;21.582;2023-04-06T03:16:46;100505.44;;;-0.91;67.58
51530;BME280;37613;51.788;21.582;2023-04-06T03:20:48;100507.36;;;-0.90;67.58
51530;BME280;37613;51.788;21.582;2023-04-06T03:24:50;100508.48;;;-0.90;67.86
51530;BME280;37613;51.788;21.582;2023-04-06T03:28:52;100504.80;;;-0.91;67.72
51530;BME280;37613;51.788;21.582;2023-04-06T03:32:54;100505.35;;;-0.91;67.64
51530;BME280;37613;51.788;21.582;2023-04-06T03:36:58;100495.98;;;-0.96;67.82
51530;BME280;37613;51.788;21.582;2023-04-06T03:41:00;100505.48;;;-0.89;67.73
51530;BME280;37613;51.788;21.582;2023-04-06T03:45:05;100505.48;;;-0.88;67.67
51530;BME280;37613;51.788;21.582;2023-04-06T03:49:07;100502.95;;;-0.86;67.71
51530;BME280;37613;51.788;21.582;2023-04-06T03:53:09;100501.00;;;-0.86;67.87
51530;BME280;37613;51.788;21.582;2023-04-06T03:57:13;100503.35;;;-0.87;68.05
51530;BME280;37613;51.788;21.582;2023-04-06T04:01:25;100495.57;;;-0.89;68.01
51530;BME280;37613;51.788;21.582;2023-04-06T04:05:38;100495.89;;;-0.89;67.90
51530;BME280;37613;51.788;21.582;2023-04-06T04:09:41;100492.47;;;-0.89;68.10
51530;BME280;37613;51.788;21.582;2023-04-06T04:13:43;100492.60;;;-0.88;67.99
51530;BME280;37613;51.788;21.582;2023-04-06T04:17:45;100494.45;;;-0.85;68.00
51530;BME280;37613;51.788;21.582;2023-04-06T04:21:51;100483.05;;;-0.89;68.37
51530;BME280;37613;51.788;21.582;2023-04-06T04:25:53;100477.09;;;-0.84;68.34
51530;BME280;37613;51.788;21.582;2023-04-06T04:30:21;100480.90;;;-0.76;68.46
51530;BME280;37613;51.788;21.582;2023-04-06T04:34:23;100488.25;;;-0.64;68.57
51530;BME280;37613;51.788;21.582;2023-04-06T04:38:44;100484.45;;;-0.54;68.82
51530;BME280;37613;51.788;21.582;2023-04-06T04:42:55;100481.71;;;-0.39;68.81
51530;BME280;37613;51.788;21.582;2023-04-06T04:47:22;100480.94;;;-0.30;68.71
51530;BME280;37613;51.788;21.582;2023-04-06T04:51:29;100479.38;;;-0.25;68.62
51530;BME280;37613;51.788;21.582;2023-04-06T07:18:34;100400.74;;;0.97;72.72
51530;BME280;37613;51.788;21.582;2023-04-06T07:22:38;100400.15;;;1.08;72.81
51530;BME280;37613;51.788;21.582;2023-04-06T07:26:40;100397.91;;;1.10;73.02
51530;BME280;37613;51.788;21.582;2023-04-06T07:30:42;100400.70;;;1.11;73.21
51530;BME280;37613;51.788;21.582;2023-04-06T07:34:44;100404.05;;;1.13;73.93
51530;BME280;37613;51.788;21.582;2023-04-06T07:38:46;100404.95;;;1.09;74.02
51530;BME280;37613;51.788;21.582;2023-04-06T07:42:49;100401.75;;;1.03;74.66
51530;BME280;37613;51.788;21.582;2023-04-06T07:46:52;100403.42;;;0.92;75.42
51530;BME280;37613;51.788;21.582;2023-04-06T07:51:01;100405.67;;;0.79;76.35
51530;BME280;37613;51.788;21.582;2023-04-06T07:55:10;100403.98;;;0.74;75.89
51530;BME280;37613;51.788;21.582;2023-04-06T07:59:18;100396.77;;;0.69;76.83
51530;BME280;37613;51.788;21.582;2023-04-06T08:03:28;100390.15;;;0.62;77.64
51530;BME280;37613;51.788;21.582;2023-04-06T08:07:48;100389.52;;;0.60;78.16
51530;BME280;37613;51.788;21.582;2023-04-06T08:11:56;100387.35;;;0.64;78.66
51530;BME280;37613;51.788;21.582;2023-04-06T08:16:01;100381.55;;;0.71;78.14
51530;BME280;37613;51.788;21.582;2023-04-06T08:20:09;100375.25;;;0.74;78.75
51530;BME280;37613;51.788;21.582;2023-04-06T08:24:22;100364.77;;;0.74;78.95
51530;BME280;37613;51.788;21.582;2023-04-06T08:28:31;100367.55;;;0.76;79.31
51530;BME280;37613;51.788;21.582;2023-04-06T08:32:39;100364.30;;;0.71;80.30
51530;BME280;37613;51.788;21.582;2023-04-06T08:36:51;100368.42;;;0.65;80.75
51530;BME280;37613;51.788;21.582;2023-04-06T08:41:11;100364.17;;;0.64;81.68
51530;BME280;37613;51.788;21.582;2023-04-06T08:45:28;100352.82;;;0.68;81.04
51530;BME280;37613;51.788;21.582;2023-04-06T08:50:07;100345.08;;;0.72;80.88
51530;BME280;37613;51.788;21.582;2023-04-06T08:54:19;100338.52;;;0.71;81.93
51530;BME280;37613;51.788;21.582;2023-04-06T08:58:25;100341.84;;;0.73;81.44
51530;BME280;37613;51.788;21.582;2023-04-06T09:02:33;100334.38;;;0.73;82.86
51530;BME280;37613;51.788;21.582;2023-04-06T09:06:47;100327.41;;;0.74;82.83
51530;BME280;37613;51.788;21.582;2023-04-06T09:11:02;100328.06;;;0.73;82.63
51530;BME280;37613;51.788;21.582;2023-04-06T09:15:21;100321.52;;;0.73;82.82
51530;BME280;37613;51.788;21.582;2023-04-06T09:19:34;100322.77;;;0.73;82.79
51530;BME280;37613;51.788;21.582;2023-04-06T09:24:04;100320.27;;;0.73;84.14
51530;BME280;37613;51.788;21.582;2023-04-06T09:28:12;100313.67;;;0.69;83.74
51530;BME280;37613;51.788;21.582;2023-04-06T09:32:22;100301.67;;;0.67;83.48
51530;BME280;37613;51.788;21.582;2023-04-06T09:36:39;100305.39;;;0.70;83.23
51530;BME280;37613;51.788;21.582;2023-04-06T09:40:54;100295.96;;;0.72;82.89
51530;BME280;37613;51.788;21.582;2023-04-06T09:50:17;100297.47;;;0.72;84.60
51530;BME280;37613;51.788;21.582;2023-04-06T09:59:52;100283.63;;;0.69;84.31
51530;BME280;37613;51.788;21.582;2023-04-06T10:04:18;100276.04;;;0.72;84.69
51530;BME280;37613;51.788;21.582;2023-04-06T10:08:41;100270.85;;;0.72;85.09
51530;BME280;37613;51.788;21.582;2023-04-06T10:12:52;100272.38;;;0.70;85.19
51530;BME280;37613;51.788;21.582;2023-04-06T10:16:59;100271.14;;;0.71;85.22
51530;BME280;37613;51.788;21.582;2023-04-06T10:21:37;100263.48;;;0.72;85.07
51530;BME280;37613;51.788;21.582;2023-04-06T10:26:01;100259.10;;;0.74;85.57
51530;BME280;37613;51.788;21.582;2023-04-06T10:30:17;100260.98;;;0.77;85.11
51530;BME280;37613;51.788;21.582;2023-04-06T10:34:34;100268.23;;;0.78;85.78
51530;BME280;37613;51.788;21.582;2023-04-06T10:38:57;100263.73;;;0.79;86.51
51530;BME280;37613;51.788;21.582;2023-04-06T10:43:32;100268.98;;;0.80;86.05
51530;BME280;37613;51.788;21.582;2023-04-06T10:47:40;100269.62;;;0.80;85.58
51530;BME280;37613;51.788;21.582;2023-04-06T10:51:43;100257.45;;;0.79;86.83
51530;BME280;37613;51.788;21.582;2023-04-06T10:55:53;100248.92;;;0.77;87.22
51530;BME280;37613;51.788;21.582;2023-04-06T11:00:08;100246.71;;;0.78;86.86
51530;BME280;37613;51.788;21.582;2023-04-06T11:04:21;100248.38;;;0.84;86.82
51530;BME280;37613;51.788;21.582;2023-04-06T11:08:33;100240.93;;;0.85;88.17
51530;BME280;37613;51.788;21.582;2023-04-06T11:12:51;100232.31;;;0.87;87.54
51530;BME280;37613;51.788;21.582;2023-04-06T11:16:53;100223.71;;;0.91;87.81
51530;BME280;37613;51.788;21.582;2023-04-06T11:21:04;100234.60;;;0.93;88.81
51530;BME280;37613;51.788;21.582;2023-04-06T11:25:15;100249.64;;;0.95;88.07
51530;BME280;37613;51.788;21.582;2023-04-06T11:29:36;100242.21;;;0.96;87.73
51530;BME280;37613;51.788;21.582;2023-04-06T11:33:50;100224.98;;;0.98;88.94
51530;BME280;37613;51.788;21.582;2023-04-06T11:38:17;100222.05;;;0.98;88.87
51530;BME280;37613;51.788;21.582;2023-04-06T11:42:29;100226.58;;;1.01;88.08
51530;BME280;37613;51.788;21.582;2023-04-06T11:47:12;100226.18;;;1.01;88.34
51530;BME280;37613;51.788;21.582;2023-04-06T11:51:45;100221.58;;;1.04;88.50
51530;BME280;37613;51.788;21.582;2023-04-06T11:56:21;100212.58;;;1.07;88.37
51530;BME280;37613;51.788;21.582;2023-04-06T12:01:02;100202.91;;;1.11;88.78
51530;BME280;37613;51.788;21.582;2023-04-06T12:05:36;100206.79;;;1.12;89.46
51530;BME280;37613;51.788;21.582;2023-04-06T12:10:05;100213.66;;;1.11;90.42
51530;BME280;37613;51.788;21.582;2023-04-06T12:14:27;100202.20;;;1.06;91.38
51530;BME280;37613;51.788;21.582;2023-04-06T12:18:44;100197.30;;;1.04;91.50
51530;BME280;37613;51.788;21.582;2023-04-06T12:23:37;100199.66;;;1.02;91.20
51530;BME280;37613;51.788;21.582;2023-04-06T12:32:58;100207.23;;;1.08;91.23
51530;BME280;37613;51.788;21.582;2023-04-06T12:37:34;100202.45;;;1.09;90.92
51530;BME280;37613;51.788;21.582;2023-04-06T12:46:39;100179.27;;;1.09;91.63
51530;BME280;37613;51.788;21.582;2023-04-06T12:51:31;100170.73;;;1.08;91.70
51530;BME280;37613;51.788;21.582;2023-04-06T12:56:13;100153.85;;;1.13;91.23
51530;BME280;37613;51.788;21.582;2023-04-06T13:10:09;100149.48;;;1.23;92.59
51530;BME280;37613;51.788;21.582;2023-04-06T13:14:41;100149.72;;;1.27;92.89
51530;BME280;37613;51.788;21.582;2023-04-06T13:19:20;100148.59;;;1.31;91.98
51530;BME280;37613;51.788;21.582;2023-04-06T13:23:57;100139.55;;;1.32;92.02
51530;BME280;37613;51.788;21.582;2023-04-06T13:28:25;100138.19;;;1.32;92.83
51530;BME280;37613;51.788;21.582;2023-04-06T13:37:44;100134.05;;;1.33;92.30
51530;BME280;37613;51.788;21.582;2023-04-06T13:42:29;100122.77;;;1.34;93.12
51530;BME280;37613;51.788;21.582;2023-04-06T13:47:04;100109.93;;;1.36;93.99
51530;BME280;37613;51.788;21.582;2023-04-06T13:51:28;100121.67;;;1.38;94.33
51530;BME280;37613;51.788;21.582;2023-04-06T13:56:15;100133.48;;;1.37;93.99
51530;BME280;37613;51.788;21.582;2023-04-06T14:01:08;100125.44;;;1.34;95.67
51530;BME280;37613;51.788;21.582;2023-04-06T14:05:50;100122.05;;;1.33;95.53
51530;BME280;37613;51.788;21.582;2023-04-06T14:10:14;100112.95;;;1.33;95.32
51530;BME280;37613;51.788;21.582;2023-04-06T14:15:01;100102.57;;;1.35;95.20
51530;BME280;37613;51.788;21.582;2023-04-06T14:19:18;100100.90;;;1.36;95.68
51530;BME280;37613;51.788;21.582;2023-04-06T14:47:59;100100.96;;;1.56;95.43
51530;BME280;37613;51.788;21.582;2023-04-06T14:52:51;100105.75;;;1.55;96.69
51530;BME280;37613;51.788;21.582;2023-04-06T14:58:01;100102.52;;;1.54;95.30
51530;BME280;37613;51.788;21.582;2023-04-06T15:02:40;100099.88;;;1.57;94.68
51530;BME280;37613;51.788;21.582;2023-04-06T15:07:11;100100.01;;;1.61;94.56
51530;BME280;37613;51.788;21.582;2023-04-06T15:16:34;100101.08;;;1.62;94.36
51530;BME280;37613;51.788;21.582;2023-04-06T15:21:07;100097.26;;;1.62;94.83
51530;BME280;37613;51.788;21.582;2023-04-06T15:35:33;100077.05;;;1.63;96.02
51530;BME280;37613;51.788;21.582;2023-04-06T15:40:04;100078.73;;;1.65;95.29
51530;BME280;37613;51.788;21.582;2023-04-06T15:44:41;100081.63;;;1.65;95.50
51530;BME280;37613;51.788;21.582;2023-04-06T15:49:07;100080.72;;;1.63;95.16
51530;BME280;37613;51.788;21.582;2023-04-06T15:53:42;100080.39;;;1.63;95.08
51530;BME280;37613;51.788;21.582;2023-04-06T16:03:26;100081.95;;;1.61;95.15
51530;BME280;37613;51.788;21.582;2023-04-06T16:23:20;100079.66;;;1.67;95.81
51530;BME280;37613;51.788;21.582;2023-04-06T16:27:49;100085.23;;;1.68;95.85
51530;BME280;37613;51.788;21.582;2023-04-06T16:32:36;100082.39;;;1.70;95.72
51530;BME280;37613;51.788;21.582;2023-04-06T16:42:14;100078.55;;;1.76;95.33
51530;BME280;37613;51.788;21.582;2023-04-06T16:51:25;100079.90;;;1.81;96.10
51530;BME280;37613;51.788;21.582;2023-04-06T16:55:57;100074.16;;;1.82;96.02
51530;BME280;37613;51.788;21.582;2023-04-06T17:00:25;100072.27;;;1.84;95.78
51530;BME280;37613;51.788;21.582;2023-04-06T17:04:45;100072.68;;;1.85;96.93
51530;BME280;37613;51.788;21.582;2023-04-06T17:09:15;100062.33;;;1.85;96.26
51530;BME280;37613;51.788;21.582;2023-04-06T17:13:57;100059.29;;;1.85;97.09
51530;BME280;37613;51.788;21.582;2023-04-06T17:18:15;100055.16;;;1.86;97.06
51530;BME280;37613;51.788;21.582;2023-04-06T17:28:28;100052.09;;;1.89;96.74
51530;BME280;37613;51.788;21.582;2023-04-06T17:37:38;100046.95;;;1.91;97.37
51530;BME280;37613;51.788;21.582;2023-04-06T17:47:11;100043.14;;;1.97;97.06
51530;BME280;37613;51.788;21.582;2023-04-06T17:56:35;100043.23;;;1.98;98.09
51530;BME280;37613;51.788;21.582;2023-04-06T18:01:14;100039.71;;;2.00;97.84
51530;BME280;37613;51.788;21.582;2023-04-06T18:15:09;100051.04;;;2.03;98.07
51530;BME280;37613;51.788;21.582;2023-04-06T18:34:19;100061.97;;;2.20;98.00
51530;BME280;37613;51.788;21.582;2023-04-06T18:44:19;100072.39;;;2.22;97.59
51530;BME280;37613;51.788;21.582;2023-04-06T18:54:13;100071.23;;;2.22;98.16
51530;BME280;37613;51.788;21.582;2023-04-06T18:58:58;100068.04;;;2.22;97.75
51530;BME280;37613;51.788;21.582;2023-04-06T19:03:40;100072.05;;;2.24;97.65
51530;BME280;37613;51.788;21.582;2023-04-06T19:08:23;100074.92;;;2.26;98.16
51530;BME280;37613;51.788;21.582;2023-04-06T19:18:11;100061.88;;;2.31;97.68
51530;BME280;37613;51.788;21.582;2023-04-06T19:22:38;100056.39;;;2.32;98.22
51530;BME280;37613;51.788;21.582;2023-04-06T19:27:09;100050.85;;;2.34;97.83
51530;BME280;37613;51.788;21.582;2023-04-06T19:31:40;100044.59;;;2.36;97.68
51530;BME280;37613;51.788;21.582;2023-04-06T19:36:20;100045.21;;;2.39;97.37
51530;BME280;37613;51.788;21.582;2023-04-06T19:51:01;100038.84;;;2.45;97.30
51530;BME280;37613;51.788;21.582;2023-04-06T19:55:23;100040.05;;;2.46;97.23
51530;BME280;37613;51.788;21.582;2023-04-06T19:59:48;100042.35;;;2.47;97.20
51530;BME280;37613;51.788;21.582;2023-04-06T20:04:17;100043.48;;;2.49;97.40
51530;BME280;37613;51.788;21.582;2023-04-06T20:08:49;100034.80;;;2.50;97.33
51530;BME280;37613;51.788;21.582;2023-04-06T20:13:20;100036.17;;;2.53;97.29
51530;BME280;37613;51.788;21.582;2023-04-06T20:17:44;100029.02;;;2.54;97.32
51530;BME280;37613;51.788;21.582;2023-04-06T20:22:37;100028.44;;;2.55;97.39
51530;BME280;37613;51.788;21.582;2023-04-06T20:32:40;100035.13;;;2.59;97.58
51530;BME280;37613;51.788;21.582;2023-04-06T20:37:20;100033.83;;;2.61;97.94
51530;BME280;37613;51.788;21.582;2023-04-06T20:41:57;100031.20;;;2.62;98.20
51530;BME280;37613;51.788;21.582;2023-04-06T20:51:04;100015.65;;;2.66;98.06
51530;BME280;37613;51.788;21.582;2023-04-06T21:00:53;100006.28;;;2.69;97.77
51530;BME280;37613;51.788;21.582;2023-04-06T21:06:11;100008.82;;;2.70;97.88
51530;BME280;37613;51.788;21.582;2023-04-06T21:10:16;100000.58;;;2.71;98.71
51530;BME280;37613;51.788;21.582;2023-04-06T21:14:45;99995.88;;;2.73;98.85
51530;BME280;37613;51.788;21.582;2023-04-06T21:19:04;99992.56;;;2.74;99.09
51530;BME280;37613;51.788;21.582;2023-04-06T21:23:41;99986.89;;;2.75;98.73
51530;BME280;37613;51.788;21.582;2023-04-06T21:28:04;99987.61;;;2.76;98.85
51530;BME280;37613;51.788;21.582;2023-04-06T21:32:30;99986.38;;;2.77;99.15
51530;BME280;37613;51.788;21.582;2023-04-06T21:37:04;99985.48;;;2.78;98.96
51530;BME280;37613;51.788;21.582;2023-04-06T21:41:32;99983.02;;;2.80;98.72
51530;BME280;37613;51.788;21.582;2023-04-06T21:56:49;99973.53;;;2.87;99.43
51530;BME280;37613;51.788;21.582;2023-04-06T22:01:11;99970.16;;;2.89;99.07
51530;BME280;37613;51.788;21.582;2023-04-06T22:05:27;99960.67;;;2.91;99.55
51530;BME280;37613;51.788;21.582;2023-04-06T22:14:38;99953.32;;;2.93;99.60
51530;BME280;37613;51.788;21.582;2023-04-06T22:19:07;99939.23;;;2.89;99.54
51530;BME280;37613;51.788;21.582;2023-04-06T22:23:45;99940.60;;;2.96;99.37
51530;BME280;37613;51.788;21.582;2023-04-06T22:28:30;99938.48;;;2.99;99.76
51530;BME280;37613;51.788;21.582;2023-04-06T22:32:56;99936.90;;;3.01;99.38
51530;BME280;37613;51.788;21.582;2023-04-06T22:37:18;99935.92;;;3.03;99.53
51530;BME280;37613;51.788;21.582;2023-04-06T22:41:42;99936.38;;;3.04;99.40
51530;BME280;37613;51.788;21.582;2023-04-06T22:46:19;99934.45;;;3.06;99.36
51530;BME280;37613;51.788;21.582;2023-04-06T22:50:47;99930.19;;;3.07;99.48
51530;BME280;37613;51.788;21.582;2023-04-06T22:55:14;99927.13;;;3.11;99.36
51530;BME280;37613;51.788;21.582;2023-04-06T22:59:38;99923.92;;;3.13;99.25
51530;BME280;37613;51.788;21.582;2023-04-06T23:04:10;99919.34;;;3.14;99.21
51530;BME280;37613;51.788;21.582;2023-04-06T23:09:02;99920.04;;;3.14;99.18
51530;BME280;37613;51.788;21.582;2023-04-06T23:13:26;99917.04;;;3.16;99.17
51530;BME280;37613;51.788;21.582;2023-04-06T23:18:01;99920.84;;;3.18;99.28
51530;BME280;37613;51.788;21.582;2023-04-06T23:22:32;99923.39;;;3.20;99.36
51530;BME280;37613;51.788;21.582;2023-04-06T23:27:01;99923.11;;;3.21;99.33
51530;BME280;37613;51.788;21.582;2023-04-06T23:36:47;99917.58;;;3.25;99.81
51530;BME280;37613;51.788;21.582;2023-04-06T23:41:15;99905.85;;;3.27;99.60
51530;BME280;37613;51.788;21.582;2023-04-06T23:46:01;99900.52;;;3.29;99.68
51530;BME280;37613;51.788;21.582;2023-04-06T23:50:41;99895.20;;;3.33;99.67
51530;BME280;37613;51.788;21.582;2023-04-06T23:55:09;99892.91;;;3.39;99.65
51530;BME280;37613;51.788;21.582;2023-04-06T23:59:31;99892.71;;;3.43;99.72
